Prince Albert Glass Field
CYPA : rendu visible

Aérodrome :











RETROUVEZ-NOUS SUR...

 
LOGIN :

S'inscrire | Disclaimer

   EN    FR    IT 

 









Légende :    VFR   VFR Marginal   IFR   IFR Intensif   IFR Très Intensif
Visi : 
Plafond : 
>= 8 km
>= 3000ft
5 à 8 km
1000 à 3000 ft
1500m à 5 km
500 à 1000 ft
800 à 1500m
200 à 500 ft
< 800m
< 200 ft
Symboles :   Orages  Brouillard  Fortes neiges  Fortes précipitations  Vent > 20 kt






- Altitude de l'aérodrome : 1405 ft
- Code IATA : YPA


CYPA - Prince Albert Glass Field

DERNIER METAR :
  • 212100Z 16003KT 080V180 15SM BKN030 BKN120 06/M02 A3002 RMK CU5AC1 AC TR CIG RAG SLP188

METARs EXPIRÉS :
  • 212000Z 35004KT 220V030 15SM SCT025 BKN033 06/M01 A3001 RMK CU4SC3 SLP187

TAF TAF CYPA
Valide du 21 à 19h jusqu'au 22 à 07h UTC


211838Z 2119/2207 10005KT P6SM BKN025 BKN060
FM212100 02005KT P6SM FEW040 RMK NXT FCST BY 220100Z



MET'MAP, la Météo Aéronautique d'un coup d'oeil ! - Copyright ORBIFLY Décembre 2007 - Disclaimer

ORBIFLY MET'MAP TEAM :

Programmation & Développement : Alexandra Zaïnal
Conception & Développement : Baudouin d'Aumeries
Co-Programmation & Développement : Marc-Olivier Méhu
Soutien technique & logistique : Manuel Goepfert

Contact : metmap@orbifly.com




SOURCES & CREDITS :

   NOAA       Earth
Advisory